Flight Track Log - Related Links

Times and Time Zones

All times are in EDT time to prevent confusion due to time zone crossing. See the AAL928 flight status page for this flight to view local times or setup timezone preferences in your user account.

Time Position Orientation Groundspeed Altitude Reporting Facility
EDT Latitude Longitude Course Direction KTS MPH feet Rate Location/Type
Sun 08:29:56 PM 33.6500 -84.3833 252° West 184 212 2,400  Level Atlanta TRACON
Sun 08:30:56 PM 33.6667 -84.3333 68° East 225 259 4,500 2,550 Climbing Atlanta TRACON
Sun 08:31:56 PM 33.7167 -84.2667 48° Northeast 265 305 7,500 2,308 Climbing Atlanta TRACON
Sun 08:32:00 PM 33.8000 -84.5345 270° West  Level FlightAware Approximate
Sun 08:33:00 PM 33.7857 -84.6687 252° West  Level FlightAware Approximate
Sun 08:33:45 PM 33.8106 -84.3464 325° Northwest 276 318 11,000  Level Atlanta Center
Sun 08:34:00 PM 33.7498 -84.7987 252° West  Level FlightAware Approximate
Sun 08:34:45 PM 33.8103 -84.4339 270° West 268 308 13,100  Level Atlanta Center
Sun 08:35:00 PM 33.7138 -84.9285 252° West  Level FlightAware Approximate
Sun 08:35:45 PM 33.8119 -84.5514 271° West 319 367 14,700  Level Atlanta Center
Sun 08:36:45 PM 33.7906 -84.6761 258° West 355 409 16,900 1,950 Climbing Atlanta Center
Sun 08:37:45 PM 33.7564 -84.8083 253° West 390 449 18,600 1,400 Climbing Atlanta Center
Sun 08:38:45 PM 33.7197 -84.9603 254° West 424 488 19,700 1,000 Climbing Atlanta Center
Sun 08:39:45 PM 33.6833 -85.0972 252° West 430 495 20,600 950 Climbing Atlanta Center
Sun 08:40:45 PM 33.6528 -85.2367 255° West 435 501 21,600 1,250 Climbing Atlanta Center
Sun 08:41:45 PM 33.6511 -85.3864 269° West 440 506 23,100 5,200 Climbing Atlanta Center
Sun 08:42:45 PM 33.6600 -85.5289 274° West 440 506 32,000 2,250 Climbing Atlanta Center
Sun 08:43:45 PM 33.6603 -85.6736 270° West 440 506 27,600 -1,400 Descending Atlanta Center
Sun 08:44:45 PM 33.6606 -85.8033 270° West 440 506 29,200 1,900 Climbing Atlanta Center
Sun 08:45:45 PM 33.6586 -85.9356 269° West 420 483 31,400 1,400 Climbing Atlanta Center
Sun 08:46:45 PM 33.6586 -86.0703 270° West 408 470 32,000 300 Climbing Atlanta Center
Sun 08:47:45 PM 33.6625 -86.2103 272° West 408 470 32,000  Level Atlanta Center
Sun 08:48:45 PM 33.6619 -86.3500 270° West 420 483 32,000  Level Atlanta Center
Sun 08:49:45 PM 33.6656 -86.4922 272° West 420 483 32,000  Level Atlanta Center
Sun 08:50:45 PM 33.6667 -86.6397 271° West 425 489 32,000  Level Atlanta Center
Sun 08:51:45 PM 33.6678 -86.7819 271° West 425 489 32,000  Level Atlanta Center
Sun 08:52:45 PM 33.6664 -86.9267 269° West 425 489 32,000  Level Atlanta Center
Sun 08:53:45 PM 33.6483 -87.0708 261° West 430 495 32,000  Level Atlanta Center
Sun 08:55:20 PM 33.6258 -87.2986 263° West 429 494 32,000  Level Memphis Center
Sun 08:56:20 PM 33.6083 -87.4414 262° West 434 499 32,000  Level Memphis Center
Sun 08:57:20 PM 33.5908 -87.5867 262° West 434 499 32,000  Level Memphis Center
Sun 08:58:20 PM 33.5772 -87.7292 263° West 434 499 32,000  Level Memphis Center
Sun 08:59:20 PM 33.5572 -87.8744 261° West 439 505 32,000  Level Memphis Center
Sun 09:00:20 PM 33.5433 -88.0219 264° West 444 511 32,000  Level Memphis Center
Sun 09:01:20 PM 33.5250 -88.1644 261° West 444 511 32,000  Level Memphis Center
Sun 09:02:20 PM 33.5131 -88.3092 264° West 444 511 32,000  Level Memphis Center
Sun 09:03:20 PM 33.4922 -88.4542 260° West 444 511 32,000  Level Memphis Center
Sun 09:04:20 PM 33.4839 -88.5989 266° West 444 511 32,000  Level Memphis Center
Sun 09:05:20 PM 33.4861 -88.7606 271° West 450 518 32,000  Level Memphis Center
Sun 09:06:20 PM 33.4839 -88.9050 269° West 450 518 32,000  Level Memphis Center
Sun 09:07:20 PM 33.4833 -89.0544 270° West 445 512 32,000  Level Memphis Center
Sun 09:08:20 PM 33.4806 -89.1992 269° West 440 506 32,000  Level Memphis Center
Sun 09:09:20 PM 33.4778 -89.3486 269° West 440 506 32,000  Level Memphis Center
Sun 09:10:20 PM 33.4767 -89.4981 270° West 440 506 32,000  Level Memphis Center
Sun 09:11:20 PM 33.4756 -89.6425 270° West 440 506 32,000  Level Memphis Center
Sun 09:12:20 PM 33.4722 -89.7944 269° West 440 506 32,000  Level Memphis Center
Sun 09:13:20 PM 33.4708 -89.9414 269° West 440 506 32,000  Level Memphis Center
Sun 09:14:20 PM 33.4689 -90.0783 269° West 440 506 32,000  Level Memphis Center
Sun 09:15:20 PM 33.4650 -90.2228 268° West 445 512 32,000  Level Memphis Center
Sun 09:16:20 PM 33.4192 -90.3622 249° West 437 503 32,000  Level Memphis Center
Sun 09:17:20 PM 33.3525 -90.4917 238° Southwest 443 510 32,000  Level Memphis Center
Sun 09:18:20 PM 33.2833 -90.6206 237° Southwest 454 522 32,000  Level Memphis Center
Sun 09:19:20 PM 33.2142 -90.7494 237° Southwest 467 537 32,000  Level Memphis Center
Sun 09:20:20 PM 33.1447 -90.8783 237° Southwest 472 543 32,000  Level Memphis Center
Sun 09:21:20 PM 33.0794 -91.0069 239° Southwest 467 537 32,000  Level Memphis Center
Sun 09:23:05 PM 32.9586 -91.2269 237° Southwest 469 540 32,000  Level Fort Worth Center
Sun 09:24:05 PM 32.8919 -91.3553 238° Southwest 469 540 32,000  Level Fort Worth Center
Sun 09:25:05 PM 32.8208 -91.4811 236° Southwest 469 540 32,000  Level Fort Worth Center
Sun 09:26:05 PM 32.7539 -91.6114 239° Southwest 469 540 32,000  Level Fort Worth Center
Sun 09:27:05 PM 32.6864 -91.7367 237° Southwest 469 540 32,000  Level Fort Worth Center
Sun 09:28:05 PM 32.6761 -91.8781 265° West 436 502 32,000  Level Fort Worth Center
Sun 09:29:05 PM 32.6656 -92.0217 265° West 436 502 32,000  Level Fort Worth Center
Sun 09:30:05 PM 32.6492 -92.1733 263° West 454 522 32,000  Level Fort Worth Center
Sun 09:31:05 PM 32.6364 -92.3194 264° West 460 529 32,000  Level Fort Worth Center
Sun 09:32:04 PM 32.6211 -92.4608 263° West 454 522 32,000  Level Fort Worth Center
Sun 09:33:04 PM 32.6078 -92.6047 264° West 447 514 32,000  Level Fort Worth Center
Sun 09:34:05 PM 32.5925 -92.7461 263° West 447 514 32,000  Level Fort Worth Center
Sun 09:35:05 PM 32.5769 -92.8922 263° West 447 514 32,000  Level Fort Worth Center
Sun 09:36:05 PM 32.5611 -93.0361 263° West 447 514 32,000  Level Fort Worth Center
Sun 09:37:05 PM 32.5450 -93.1797 262° West 447 514 32,000  Level Fort Worth Center
Sun 09:38:05 PM 32.5311 -93.3208 263° West 447 514 32,000  Level Fort Worth Center
Sun 09:39:05 PM 32.5147 -93.4669 262° West 447 514 32,000  Level Fort Worth Center
Sun 09:40:05 PM 32.4964 -93.6131 262° West 447 514 32,000  Level Fort Worth Center
Sun 09:41:05 PM 32.4817 -93.7539 263° West 442 509 32,000  Level Fort Worth Center
Sun 09:42:04 PM 32.4650 -93.9022 262° West 447 514 32,000  Level Fort Worth Center
Sun 09:43:05 PM 32.4503 -94.0456 263° West 447 514 32,000  Level Fort Worth Center
Sun 09:44:05 PM 32.4331 -94.1867 262° West 447 514 32,000  Level Fort Worth Center
Sun 09:45:05 PM 32.4158 -94.3322 262° West 447 514 32,000  Level Fort Worth Center
Sun 09:46:05 PM 32.3983 -94.4731 262° West 447 514 32,000  Level Fort Worth Center
Sun 09:47:05 PM 32.3789 -94.6289 262° West 447 514 32,000  Level Fort Worth Center
Sun 09:48:04 PM 32.3633 -94.7767 263° West 447 514 32,000  Level Fort Worth Center
Sun 09:49:05 PM 32.3453 -94.9200 262° West 447 514 32,000  Level Fort Worth Center
Sun 09:50:05 PM 32.3331 -95.0506 264° West 453 521 32,000  Level Fort Worth Center
Sun 09:51:04 PM 32.3150 -95.1911 261° West 453 521 32,000  Level Fort Worth Center
Sun 09:52:05 PM 32.3214 -95.3336 273° West 443 510 32,000 -347 Level Fort Worth Center
Sun 09:53:05 PM 32.3281 -95.4761 273° West 438 504 31,300  Descending Fort Worth Center
Sun 09:54:04 PM 32.3364 -95.6186 274° West 438 504 32,000 -2,750 Climbing Fort Worth Center
Sun 09:55:05 PM 32.3467 -95.7633 275° West 438 504 25,800 -4,116 Descending Fort Worth Center
Sun 09:56:05 PM 32.3525 -95.9033 273° West 438 504 23,700 -2,350 Descending Fort Worth Center
Sun 09:57:05 PM 32.3603 -96.0436 274° West 433 498 21,100 -2,350 Descending Fort Worth Center
Sun 09:58:05 PM 32.3681 -96.1908 274° West 426 490 19,000 -2,150 Descending Fort Worth Center
Sun 09:59:05 PM 32.3756 -96.3236 274° West 415 478 16,800 -1,950 Descending Fort Worth Center
Sun 10:00:05 PM 32.3869 -96.4392 277° West 409 471 15,100 -1,650 Descending Fort Worth Center
Sun 10:01:05 PM 32.4608 -96.5417 311° West 366 421 13,500 -1,714 Descending Fort Worth Center
Sun 10:02:04 PM 32.5239 -96.6225 313° West 372 428 11,700 -1,261 Descending Fort Worth Center
Sun 10:03:04 PM 32.6061 -96.7181 316° Northwest 372 428 11,000 -350 Descending Fort Worth Center
Sun 10:04:04 PM 32.6667 -96.8000 311° West 321 369 11,000  Level Dallas / Fort Worth TRACON
Sun 10:05:04 PM 32.7333 -96.8667 320° Northwest 283 326 11,000 -300 Level Dallas / Fort Worth TRACON
Sun 10:06:04 PM 32.8000 -96.9000 337° Northwest 252 290 10,400 -1,105 Descending Dallas / Fort Worth TRACON
Sun 10:06:58 PM 32.8500 -96.9000 360° North 249 287 8,900 -1,632 Descending Dallas / Fort Worth TRACON
Sun 10:07:58 PM 32.9167 -96.9000 360° North 245 282 7,300 -1,700 Descending Dallas / Fort Worth TRACON
Sun 10:08:58 PM 33.0000 -96.9000 360° North 249 287 5,500 -1,200 Descending Dallas / Fort Worth TRACON
Sun 10:09:58 PM 33.0667 -96.9333 337° Northwest 247 284 4,900 -600 Descending Dallas / Fort Worth TRACON
Sun 10:10:58 PM 33.0667 -97.0000 270° West 188 216 4,300 -800 Descending Dallas / Fort Worth TRACON
Sun 10:11:58 PM 33.0333 -97.0167 203° Southwest 147 169 3,300 -1,143 Descending Dallas / Fort Worth TRACON
Sun 10:13:04 PM 33.0000 -97.0167 180° South 138 159 1,900 -950 Descending Dallas / Fort Worth TRACON
Sun 10:13:58 PM 32.9500 -97.0167 180° South 138 159 1,400 -632 Descending Dallas / Fort Worth TRACON
Sun 10:14:58 PM 32.9167 -97.0167 180° South 132 152 700 -700 Descending Dallas / Fort Worth TRACON

Login

Don't have an account? Register now (free) for customized features, flight alerts, and more!